SPKEA EPZR-EPNT
Flight info
| Callsign | SPKEA |
|---|---|
| Flight time | 0h 33m |
| Altitude | 3500 |
| Route | DCT EPZRJ DCT EPZRG/N0105A055 DCT 494344N0192433E 493937N0193333E 494316N0194128E 493540N0195517E/N0095A035 DCT EPNTD DCT |
| Aircraft | C172/L-SBDGR/C |
Departure
| Time | 2026-04-24 15:33 |
|---|---|
| Airport | Żar Airfield (EPZR) |
Arrival
| Time | 2026-04-24 16:06 |
|---|---|
| Airport | Nowy Targ Airfield (EPNT) |
| Time | Latitude | Longitude | Altitude | Speed | Heading |
|---|---|---|---|---|---|
| 2026-04-24 15:23 | 49.77177 | 19.22093 | 1272 ft | 0 kts | 7° |
| 2026-04-24 15:29 | 49.77200 | 19.22081 | 1279 ft | 0 kts | 316° |
| 2026-04-24 15:30 | 49.77217 | 19.22040 | 1279 ft | 0 kts | 233° |
| 2026-04-24 15:31 | 49.77138 | 19.21891 | 1235 ft | 47 kts | 226° |
| 2026-04-24 15:32 | 49.75269 | 19.20779 | 1722 ft | 96 kts | 176° |
| 2026-04-24 15:33 | 49.72729 | 19.20814 | 2184 ft | 91 kts | 182° |
| 2026-04-24 15:33 | 49.71053 | 19.21409 | 2558 ft | 84 kts | 101° |
| 2026-04-24 15:34 | 49.70852 | 19.23286 | 2823 ft | 97 kts | 86° |
| 2026-04-24 15:35 | 49.70800 | 19.26672 | 3147 ft | 110 kts | 85° |
| 2026-04-24 15:35 | 49.70945 | 19.29002 | 3372 ft | 108 kts | 71° |
| 2026-04-24 15:35 | 49.71145 | 19.30082 | 3538 ft | 103 kts | 61° |
| 2026-04-24 15:36 | 49.71419 | 19.31144 | 3504 ft | 109 kts | 66° |
| 2026-04-24 15:36 | 49.71729 | 19.33297 | 3491 ft | 101 kts | 73° |
| 2026-04-24 15:36 | 49.71873 | 19.34331 | 3495 ft | 99 kts | 70° |
| 2026-04-24 15:37 | 49.72010 | 19.35381 | 3497 ft | 99 kts | 71° |
| 2026-04-24 15:37 | 49.72168 | 19.36414 | 3517 ft | 104 kts | 72° |
| 2026-04-24 15:37 | 49.72249 | 19.37128 | 3611 ft | 104 kts | 74° |
| 2026-04-24 15:37 | 49.72418 | 19.38591 | 3799 ft | 103 kts | 71° |
| 2026-04-24 15:38 | 49.72568 | 19.39672 | 3958 ft | 103 kts | 71° |
| 2026-04-24 15:38 | 49.72793 | 19.40717 | 4098 ft | 101 kts | 57° |
| 2026-04-24 15:38 | 49.73037 | 19.41723 | 4245 ft | 104 kts | 78° |
| 2026-04-24 15:38 | 49.72962 | 19.42839 | 4406 ft | 108 kts | 100° |
| 2026-04-24 15:39 | 49.72687 | 19.43918 | 4543 ft | 110 kts | 120° |
| 2026-04-24 15:39 | 49.72182 | 19.44782 | 4679 ft | 109 kts | 138° |
| 2026-04-24 15:39 | 49.71824 | 19.45256 | 4771 ft | 109 kts | 141° |
| 2026-04-24 15:39 | 49.71268 | 19.46030 | 4919 ft | 109 kts | 136° |
| 2026-04-24 15:40 | 49.70722 | 19.46827 | 5068 ft | 109 kts | 136° |
| 2026-04-24 15:40 | 49.70195 | 19.47651 | 5218 ft | 109 kts | 133° |
| 2026-04-24 15:40 | 49.69687 | 19.48483 | 5369 ft | 109 kts | 133° |
| 2026-04-24 15:40 | 49.69196 | 19.49323 | 5513 ft | 109 kts | 130° |
| 2026-04-24 15:41 | 49.68734 | 19.50151 | 5618 ft | 112 kts | 129° |
| 2026-04-24 15:41 | 49.68218 | 19.51052 | 5593 ft | 116 kts | 130° |
| 2026-04-24 15:41 | 49.67706 | 19.51997 | 5591 ft | 115 kts | 129° |
| 2026-04-24 15:41 | 49.67211 | 19.52930 | 5585 ft | 111 kts | 128° |
| 2026-04-24 15:42 | 49.66745 | 19.53809 | 5577 ft | 102 kts | 128° |
| 2026-04-24 15:42 | 49.66282 | 19.54681 | 5594 ft | 107 kts | 128° |
| 2026-04-24 15:42 | 49.65842 | 19.55603 | 5589 ft | 108 kts | 112° |
| 2026-04-24 15:42 | 49.65784 | 19.56709 | 5589 ft | 102 kts | 66° |
| 2026-04-24 15:43 | 49.66137 | 19.57671 | 5600 ft | 107 kts | 47° |
| 2026-04-24 15:43 | 49.66604 | 19.58617 | 5595 ft | 115 kts | 45° |
| 2026-04-24 15:43 | 49.67061 | 19.59576 | 5583 ft | 109 kts | 47° |
| 2026-04-24 15:43 | 49.67507 | 19.60526 | 5510 ft | 107 kts | 46° |
| 2026-04-24 15:44 | 49.67954 | 19.61381 | 5449 ft | 105 kts | 45° |
| 2026-04-24 15:44 | 49.68363 | 19.62265 | 5523 ft | 99 kts | 46° |
| 2026-04-24 15:44 | 49.68889 | 19.62795 | 5507 ft | 86 kts | 2° |
| 2026-04-24 15:44 | 49.69415 | 19.62579 | 5406 ft | 77 kts | 317° |
| 2026-04-24 15:45 | 49.69628 | 19.61808 | 5325 ft | 90 kts | 273° |
| 2026-04-24 15:45 | 49.69385 | 19.60873 | 5243 ft | 104 kts | 242° |
| 2026-04-24 15:45 | 49.68953 | 19.59946 | 5148 ft | 110 kts | 239° |
| 2026-04-24 15:45 | 49.68520 | 19.58981 | 5058 ft | 112 kts | 241° |
| 2026-04-24 15:46 | 49.68063 | 19.58057 | 4945 ft | 109 kts | 225° |
| 2026-04-24 15:46 | 49.67373 | 19.57732 | 4820 ft | 108 kts | 181° |
| 2026-04-24 15:46 | 49.66685 | 19.58188 | 4623 ft | 112 kts | 137° |
| 2026-04-24 15:46 | 49.66339 | 19.59209 | 4431 ft | 109 kts | 93° |
| 2026-04-24 15:47 | 49.66489 | 19.60302 | 4245 ft | 103 kts | 56° |
| 2026-04-24 15:47 | 49.66856 | 19.61212 | 4064 ft | 103 kts | 47° |
| 2026-04-24 15:47 | 49.67310 | 19.62125 | 3882 ft | 111 kts | 47° |
| 2026-04-24 15:47 | 49.67760 | 19.63069 | 3696 ft | 111 kts | 47° |
| 2026-04-24 15:48 | 49.68196 | 19.63975 | 3558 ft | 106 kts | 45° |
| 2026-04-24 15:48 | 49.68638 | 19.64844 | 3525 ft | 99 kts | 41° |
| 2026-04-24 15:48 | 49.69061 | 19.65654 | 3530 ft | 97 kts | 44° |
| 2026-04-24 15:48 | 49.69472 | 19.66452 | 3527 ft | 96 kts | 44° |
| 2026-04-24 15:49 | 49.69909 | 19.67206 | 3529 ft | 94 kts | 35° |
| 2026-04-24 15:49 | 49.70438 | 19.67792 | 3534 ft | 93 kts | 27° |
| 2026-04-24 15:49 | 49.71011 | 19.68245 | 3537 ft | 93 kts | 17° |
| 2026-04-24 15:49 | 49.71601 | 19.68609 | 3533 ft | 93 kts | 9° |
| 2026-04-24 15:50 | 49.72178 | 19.68386 | 3540 ft | 88 kts | 312° |
| 2026-04-24 15:50 | 49.72274 | 19.67504 | 3545 ft | 89 kts | 255° |
| 2026-04-24 15:50 | 49.71798 | 19.66811 | 3453 ft | 101 kts | 206° |
| 2026-04-24 15:50 | 49.71112 | 19.66898 | 3423 ft | 103 kts | 149° |
| 2026-04-24 15:51 | 49.70732 | 19.67817 | 3347 ft | 107 kts | 103° |
| 2026-04-24 15:51 | 49.70515 | 19.68940 | 3460 ft | 108 kts | 103° |
| 2026-04-24 15:51 | 49.70307 | 19.70055 | 3496 ft | 109 kts | 103° |
| 2026-04-24 15:51 | 49.70067 | 19.71171 | 3488 ft | 111 kts | 109° |
| 2026-04-24 15:52 | 49.69854 | 19.71908 | 3484 ft | 112 kts | 116° |
| 2026-04-24 15:52 | 49.69335 | 19.73281 | 3482 ft | 112 kts | 122° |
| 2026-04-24 15:52 | 49.68904 | 19.74291 | 3484 ft | 112 kts | 121° |
| 2026-04-24 15:52 | 49.68476 | 19.75266 | 3484 ft | 111 kts | 125° |
| 2026-04-24 15:53 | 49.68009 | 19.76176 | 3484 ft | 111 kts | 129° |
| 2026-04-24 15:53 | 49.67508 | 19.77075 | 3486 ft | 111 kts | 127° |
| 2026-04-24 15:53 | 49.67025 | 19.78013 | 3494 ft | 111 kts | 127° |
| 2026-04-24 15:53 | 49.66545 | 19.78956 | 3494 ft | 112 kts | 127° |
| 2026-04-24 15:54 | 49.66068 | 19.79901 | 3488 ft | 111 kts | 127° |
| 2026-04-24 15:54 | 49.65556 | 19.80794 | 3489 ft | 111 kts | 133° |
| 2026-04-24 15:54 | 49.65017 | 19.81625 | 3493 ft | 111 kts | 135° |
| 2026-04-24 15:54 | 49.64501 | 19.82510 | 3493 ft | 111 kts | 130° |
| 2026-04-24 15:55 | 49.63992 | 19.83390 | 3492 ft | 111 kts | 131° |
| 2026-04-24 15:55 | 49.63469 | 19.84280 | 3499 ft | 111 kts | 131° |
| 2026-04-24 15:55 | 49.62982 | 19.85183 | 3495 ft | 111 kts | 127° |
| 2026-04-24 15:55 | 49.62520 | 19.86137 | 3496 ft | 112 kts | 124° |
| 2026-04-24 15:56 | 49.62043 | 19.87100 | 3495 ft | 112 kts | 129° |
| 2026-04-24 15:56 | 49.61550 | 19.88017 | 3490 ft | 112 kts | 127° |
| 2026-04-24 15:56 | 49.61093 | 19.88976 | 3493 ft | 112 kts | 127° |
| 2026-04-24 15:56 | 49.60619 | 19.89928 | 3489 ft | 112 kts | 128° |
| 2026-04-24 15:57 | 49.60117 | 19.90823 | 3493 ft | 112 kts | 131° |
| 2026-04-24 15:57 | 49.59620 | 19.91745 | 3494 ft | 112 kts | 125° |
| 2026-04-24 15:57 | 49.59316 | 19.92396 | 3492 ft | 112 kts | 124° |
| 2026-04-24 15:57 | 49.58543 | 19.93394 | 3498 ft | 110 kts | 157° |
| 2026-04-24 15:58 | 49.57807 | 19.93774 | 3499 ft | 110 kts | 167° |
| 2026-04-24 15:58 | 49.57082 | 19.94143 | 3493 ft | 111 kts | 161° |
| 2026-04-24 15:58 | 49.56377 | 19.94617 | 3499 ft | 111 kts | 153° |
| 2026-04-24 15:58 | 49.55705 | 19.95188 | 3492 ft | 111 kts | 153° |
| 2026-04-24 15:59 | 49.55020 | 19.95733 | 3507 ft | 111 kts | 153° |
| 2026-04-24 15:59 | 49.54333 | 19.96304 | 3491 ft | 113 kts | 152° |
| 2026-04-24 15:59 | 49.53648 | 19.96866 | 3489 ft | 112 kts | 154° |
| 2026-04-24 15:59 | 49.52964 | 19.97444 | 3494 ft | 112 kts | 148° |
| 2026-04-24 16:00 | 49.52320 | 19.98092 | 3487 ft | 110 kts | 148° |
| 2026-04-24 16:00 | 49.51664 | 19.98697 | 3492 ft | 109 kts | 151° |
| 2026-04-24 16:00 | 49.50970 | 19.99163 | 3498 ft | 108 kts | 168° |
| 2026-04-24 16:00 | 49.50240 | 19.99350 | 3494 ft | 107 kts | 176° |
| 2026-04-24 16:01 | 49.49495 | 19.99482 | 3492 ft | 107 kts | 174° |
| 2026-04-24 16:01 | 49.48767 | 19.99732 | 3491 ft | 107 kts | 169° |
| 2026-04-24 16:01 | 49.48038 | 19.99996 | 3492 ft | 107 kts | 169° |
| 2026-04-24 16:01 | 49.47340 | 20.00236 | 3487 ft | 100 kts | 171° |
| 2026-04-24 16:02 | 49.46672 | 20.00496 | 3491 ft | 97 kts | 165° |
| 2026-04-24 16:02 | 49.46025 | 20.00799 | 3487 ft | 96 kts | 158° |
| 2026-04-24 16:02 | 49.45555 | 20.01447 | 3418 ft | 91 kts | 124° |
| 2026-04-24 16:02 | 49.45207 | 20.02252 | 3343 ft | 89 kts | 119° |
| 2026-04-24 16:03 | 49.44890 | 20.03062 | 3271 ft | 89 kts | 118° |
| 2026-04-24 16:03 | 49.44571 | 20.03906 | 3201 ft | 92 kts | 117° |
| 2026-04-24 16:03 | 49.44257 | 20.04774 | 3132 ft | 93 kts | 116° |
| 2026-04-24 16:03 | 49.43943 | 20.05654 | 3058 ft | 95 kts | 116° |
| 2026-04-24 16:04 | 49.43676 | 20.06505 | 3030 ft | 81 kts | 98° |
| 2026-04-24 16:04 | 49.43791 | 20.07295 | 2929 ft | 76 kts | 43° |
| 2026-04-24 16:04 | 49.44223 | 20.07724 | 2824 ft | 75 kts | 23° |
| 2026-04-24 16:04 | 49.44685 | 20.08047 | 2711 ft | 74 kts | 3° |
| 2026-04-24 16:05 | 49.45451 | 20.07211 | 2335 ft | 71 kts | 303° |
| 2026-04-24 16:05 | 49.45697 | 20.06584 | 2195 ft | 68 kts | 300° |
| 2026-04-24 16:06 | 49.46120 | 20.05444 | 2007 ft | 50 kts | 302° |
| 2026-04-24 16:06 | 49.46281 | 20.05049 | 1992 ft | 38 kts | 303° |
| 2026-04-24 16:06 | 49.46486 | 20.04843 | 1986 ft | 9 kts | 359° |
| 2026-04-24 16:07 | 49.46544 | 20.04846 | 1985 ft | 12 kts | 1° |
| 2026-04-24 16:07 | 49.46650 | 20.04849 | 1983 ft | 15 kts | 356° |
| 2026-04-24 16:07 | 49.46690 | 20.04775 | 1983 ft | 0 kts | 4° |